sensor_id;sensor_type;location;lat;lon;timestamp;P1;durP1;ratioP1;P2;durP2;ratioP2
68866;SDS011;56451;44.804;20.476;2022-12-07T00:02:02;39.13;;;18.88;;
68866;SDS011;56451;44.804;20.476;2022-12-07T00:04:01;39.63;;;17.17;;
68866;SDS011;56451;44.804;20.476;2022-12-07T00:06:41;45.53;;;19.23;;
68866;SDS011;56451;44.804;20.476;2022-12-07T00:09:15;47.85;;;19.50;;
68866;SDS011;56451;44.804;20.476;2022-12-07T00:11:42;49.42;;;18.95;;
68866;SDS011;56451;44.804;20.476;2022-12-07T00:14:11;49.05;;;20.00;;
68866;SDS011;56451;44.804;20.476;2022-12-07T00:16:38;48.72;;;19.33;;
68866;SDS011;56451;44.804;20.476;2022-12-07T00:19:05;49.10;;;18.48;;
68866;SDS011;56451;44.804;20.476;2022-12-07T00:21:32;50.63;;;19.83;;
68866;SDS011;56451;44.804;20.476;2022-12-07T00:24:00;52.50;;;19.95;;
68866;SDS011;56451;44.804;20.476;2022-12-07T00:26:27;51.97;;;20.05;;
68866;SDS011;56451;44.804;20.476;2022-12-07T00:28:58;48.05;;;20.58;;
68866;SDS011;56451;44.804;20.476;2022-12-07T00:31:26;48.40;;;20.55;;
68866;SDS011;56451;44.804;20.476;2022-12-07T00:33:53;52.60;;;21.42;;
68866;SDS011;56451;44.804;20.476;2022-12-07T00:36:20;49.30;;;19.88;;
68866;SDS011;56451;44.804;20.476;2022-12-07T00:38:49;40.75;;;17.40;;
68866;SDS011;56451;44.804;20.476;2022-12-07T00:41:16;41.40;;;17.00;;
68866;SDS011;56451;44.804;20.476;2022-12-07T00:43:44;38.17;;;16.30;;
68866;SDS011;56451;44.804;20.476;2022-12-07T00:46:11;40.65;;;16.55;;
68866;SDS011;56451;44.804;20.476;2022-12-07T00:48:38;42.42;;;15.73;;
68866;SDS011;56451;44.804;20.476;2022-12-07T00:51:05;40.38;;;15.65;;
68866;SDS011;56451;44.804;20.476;2022-12-07T00:53:33;41.35;;;16.65;;
68866;SDS011;56451;44.804;20.476;2022-12-07T00:56:10;38.33;;;16.15;;
68866;SDS011;56451;44.804;20.476;2022-12-07T00:58:37;37.53;;;15.90;;
68866;SDS011;56451;44.804;20.476;2022-12-07T01:01:04;37.97;;;15.93;;
68866;SDS011;56451;44.804;20.476;2022-12-07T01:03:31;39.40;;;17.05;;
68866;SDS011;56451;44.804;20.476;2022-12-07T01:05:57;37.33;;;15.75;;
68866;SDS011;56451;44.804;20.476;2022-12-07T01:08:24;39.40;;;16.37;;
68866;SDS011;56451;44.804;20.476;2022-12-07T01:10:58;39.40;;;16.20;;
68866;SDS011;56451;44.804;20.476;2022-12-07T01:13:29;45.25;;;17.02;;
68866;SDS011;56451;44.804;20.476;2022-12-07T01:15:56;42.10;;;16.50;;
68866;SDS011;56451;44.804;20.476;2022-12-07T01:18:26;41.53;;;17.42;;
68866;SDS011;56451;44.804;20.476;2022-12-07T01:20:59;46.80;;;16.53;;
68866;SDS011;56451;44.804;20.476;2022-12-07T01:23:36;43.65;;;15.43;;
68866;SDS011;56451;44.804;20.476;2022-12-07T01:26:06;45.72;;;14.90;;
68866;SDS011;56451;44.804;20.476;2022-12-07T01:28:35;43.03;;;14.02;;
68866;SDS011;56451;44.804;20.476;2022-12-07T01:31:02;39.07;;;12.87;;
68866;SDS011;56451;44.804;20.476;2022-12-07T01:33:33;33.55;;;12.65;;
68866;SDS011;56451;44.804;20.476;2022-12-07T01:36:03;32.75;;;13.65;;
68866;SDS011;56451;44.804;20.476;2022-12-07T01:38:37;40.05;;;12.40;;
68866;SDS011;56451;44.804;20.476;2022-12-07T01:41:03;38.47;;;13.23;;
68866;SDS011;56451;44.804;20.476;2022-12-07T01:43:31;34.58;;;12.65;;
68866;SDS011;56451;44.804;20.476;2022-12-07T01:45:58;32.97;;;11.32;;
68866;SDS011;56451;44.804;20.476;2022-12-07T01:48:29;35.22;;;11.43;;
68866;SDS011;56451;44.804;20.476;2022-12-07T01:51:00;34.05;;;11.43;;
68866;SDS011;56451;44.804;20.476;2022-12-07T01:53:29;35.87;;;11.07;;
68866;SDS011;56451;44.804;20.476;2022-12-07T01:55:56;32.00;;;11.05;;
68866;SDS011;56451;44.804;20.476;2022-12-07T01:58:23;25.65;;;10.65;;
68866;SDS011;56451;44.804;20.476;2022-12-07T02:00:50;27.45;;;10.55;;
68866;SDS011;56451;44.804;20.476;2022-12-07T02:03:21;24.52;;;9.70;;
68866;SDS011;56451;44.804;20.476;2022-12-07T02:05:56;22.97;;;9.67;;
68866;SDS011;56451;44.804;20.476;2022-12-07T02:08:24;28.55;;;10.77;;
68866;SDS011;56451;44.804;20.476;2022-12-07T02:10:51;24.25;;;10.43;;
68866;SDS011;56451;44.804;20.476;2022-12-07T02:13:21;26.40;;;11.07;;
68866;SDS011;56451;44.804;20.476;2022-12-07T02:18:31;24.30;;;10.50;;
68866;SDS011;56451;44.804;20.476;2022-12-07T02:23:40;24.40;;;11.00;;
68866;SDS011;56451;44.804;20.476;2022-12-07T02:32:03;18.23;;;9.82;;
68866;SDS011;56451;44.804;20.476;2022-12-07T02:34:42;19.02;;;9.35;;
68866;SDS011;56451;44.804;20.476;2022-12-07T02:40:07;18.85;;;10.13;;
68866;SDS011;56451;44.804;20.476;2022-12-07T02:42:42;17.03;;;8.67;;
68866;SDS011;56451;44.804;20.476;2022-12-07T02:45:13;21.83;;;10.07;;
68866;SDS011;56451;44.804;20.476;2022-12-07T02:47:41;16.63;;;9.10;;
68866;SDS011;56451;44.804;20.476;2022-12-07T02:50:09;22.35;;;8.68;;
68866;SDS011;56451;44.804;20.476;2022-12-07T02:52:36;18.27;;;8.60;;
68866;SDS011;56451;44.804;20.476;2022-12-07T02:55:02;18.93;;;9.13;;
68866;SDS011;56451;44.804;20.476;2022-12-07T03:00:03;15.13;;;7.68;;
68866;SDS011;56451;44.804;20.476;2022-12-07T03:10:50;13.90;;;5.38;;
68866;SDS011;56451;44.804;20.476;2022-12-07T03:16:27;10.68;;;4.75;;
68866;SDS011;56451;44.804;20.476;2022-12-07T03:19:00;13.32;;;5.45;;
68866;SDS011;56451;44.804;20.476;2022-12-07T03:21:32;13.35;;;5.57;;
68866;SDS011;56451;44.804;20.476;2022-12-07T03:24:04;7.88;;;4.85;;
68866;SDS011;56451;44.804;20.476;2022-12-07T03:26:36;12.65;;;4.43;;
68866;SDS011;56451;44.804;20.476;2022-12-07T03:29:11;8.70;;;4.50;;
68866;SDS011;56451;44.804;20.476;2022-12-07T03:31:46;7.32;;;3.75;;
68866;SDS011;56451;44.804;20.476;2022-12-07T03:34:18;6.30;;;3.00;;
68866;SDS011;56451;44.804;20.476;2022-12-07T03:36:51;6.38;;;3.30;;
68866;SDS011;56451;44.804;20.476;2022-12-07T03:39:27;6.70;;;3.17;;
68866;SDS011;56451;44.804;20.476;2022-12-07T03:42:05;7.45;;;3.28;;
68866;SDS011;56451;44.804;20.476;2022-12-07T03:44:33;5.47;;;3.30;;
68866;SDS011;56451;44.804;20.476;2022-12-07T03:47:22;7.97;;;3.28;;
68866;SDS011;56451;44.804;20.476;2022-12-07T03:50:03;5.75;;;3.33;;
68866;SDS011;56451;44.804;20.476;2022-12-07T03:52:40;7.30;;;3.67;;
68866;SDS011;56451;44.804;20.476;2022-12-07T03:55:11;6.30;;;3.50;;
68866;SDS011;56451;44.804;20.476;2022-12-07T03:57:41;6.20;;;3.58;;
68866;SDS011;56451;44.804;20.476;2022-12-07T04:00:11;6.25;;;3.40;;
68866;SDS011;56451;44.804;20.476;2022-12-07T04:02:38;7.82;;;3.95;;
68866;SDS011;56451;44.804;20.476;2022-12-07T04:05:06;7.57;;;3.55;;
68866;SDS011;56451;44.804;20.476;2022-12-07T04:07:33;5.75;;;3.63;;
68866;SDS011;56451;44.804;20.476;2022-12-07T04:09:59;8.23;;;4.10;;
68866;SDS011;56451;44.804;20.476;2022-12-07T04:12:25;7.43;;;3.95;;
68866;SDS011;56451;44.804;20.476;2022-12-07T04:14:51;7.90;;;4.07;;
68866;SDS011;56451;44.804;20.476;2022-12-07T04:17:16;5.83;;;3.30;;
68866;SDS011;56451;44.804;20.476;2022-12-07T04:19:42;6.63;;;3.75;;
68866;SDS011;56451;44.804;20.476;2022-12-07T04:22:08;7.47;;;4.32;;
68866;SDS011;56451;44.804;20.476;2022-12-07T04:24:34;8.07;;;4.57;;
68866;SDS011;56451;44.804;20.476;2022-12-07T04:27:00;7.38;;;4.43;;
68866;SDS011;56451;44.804;20.476;2022-12-07T04:29:26;9.15;;;5.10;;
68866;SDS011;56451;44.804;20.476;2022-12-07T04:31:52;9.88;;;4.90;;
68866;SDS011;56451;44.804;20.476;2022-12-07T04:34:18;8.48;;;4.68;;
68866;SDS011;56451;44.804;20.476;2022-12-07T04:36:45;9.38;;;4.75;;
68866;SDS011;56451;44.804;20.476;2022-12-07T04:39:19;8.30;;;5.07;;
68866;SDS011;56451;44.804;20.476;2022-12-07T04:41:53;10.65;;;5.97;;
68866;SDS011;56451;44.804;20.476;2022-12-07T04:44:19;12.70;;;7.05;;
68866;SDS011;56451;44.804;20.476;2022-12-07T04:46:46;12.43;;;7.07;;
68866;SDS011;56451;44.804;20.476;2022-12-07T04:49:12;11.90;;;6.43;;
68866;SDS011;56451;44.804;20.476;2022-12-07T04:51:39;10.93;;;6.88;;
68866;SDS011;56451;44.804;20.476;2022-12-07T04:54:05;11.48;;;6.25;;
68866;SDS011;56451;44.804;20.476;2022-12-07T04:56:31;12.90;;;6.28;;
68866;SDS011;56451;44.804;20.476;2022-12-07T04:58:57;10.82;;;5.97;;
68866;SDS011;56451;44.804;20.476;2022-12-07T05:01:23;10.25;;;5.65;;
68866;SDS011;56451;44.804;20.476;2022-12-07T05:03:50;8.65;;;4.95;;
68866;SDS011;56451;44.804;20.476;2022-12-07T05:06:16;8.95;;;5.20;;
68866;SDS011;56451;44.804;20.476;2022-12-07T05:08:42;10.18;;;5.85;;
68866;SDS011;56451;44.804;20.476;2022-12-07T05:11:08;8.63;;;5.25;;
68866;SDS011;56451;44.804;20.476;2022-12-07T05:13:55;8.15;;;5.22;;
68866;SDS011;56451;44.804;20.476;2022-12-07T05:16:21;11.20;;;5.78;;
68866;SDS011;56451;44.804;20.476;2022-12-07T05:18:47;10.47;;;5.63;;
68866;SDS011;56451;44.804;20.476;2022-12-07T05:21:12;7.60;;;4.75;;
68866;SDS011;56451;44.804;20.476;2022-12-07T05:23:38;9.15;;;5.28;;
68866;SDS011;56451;44.804;20.476;2022-12-07T05:26:04;9.80;;;5.17;;
68866;SDS011;56451;44.804;20.476;2022-12-07T05:28:30;10.32;;;5.53;;
68866;SDS011;56451;44.804;20.476;2022-12-07T05:30:56;9.10;;;5.13;;
68866;SDS011;56451;44.804;20.476;2022-12-07T05:33:22;8.43;;;5.03;;
68866;SDS011;56451;44.804;20.476;2022-12-07T05:35:48;7.60;;;4.20;;
68866;SDS011;56451;44.804;20.476;2022-12-07T05:38:14;8.77;;;4.67;;
68866;SDS011;56451;44.804;20.476;2022-12-07T05:40:39;8.07;;;4.97;;
68866;SDS011;56451;44.804;20.476;2022-12-07T05:43:05;7.07;;;4.55;;
68866;SDS011;56451;44.804;20.476;2022-12-07T05:45:31;7.07;;;4.50;;
68866;SDS011;56451;44.804;20.476;2022-12-07T05:47:57;7.40;;;4.80;;
68866;SDS011;56451;44.804;20.476;2022-12-07T05:50:23;8.52;;;4.38;;
68866;SDS011;56451;44.804;20.476;2022-12-07T05:53:00;9.30;;;5.47;;
68866;SDS011;56451;44.804;20.476;2022-12-07T05:55:25;9.88;;;5.38;;
68866;SDS011;56451;44.804;20.476;2022-12-07T05:57:52;9.57;;;5.43;;
68866;SDS011;56451;44.804;20.476;2022-12-07T06:00:36;9.10;;;5.60;;
68866;SDS011;56451;44.804;20.476;2022-12-07T06:03:02;11.73;;;6.33;;
68866;SDS011;56451;44.804;20.476;2022-12-07T06:05:28;12.55;;;7.30;;
68866;SDS011;56451;44.804;20.476;2022-12-07T06:07:53;12.27;;;7.45;;
68866;SDS011;56451;44.804;20.476;2022-12-07T06:10:19;10.90;;;5.80;;
68866;SDS011;56451;44.804;20.476;2022-12-07T06:12:45;9.70;;;5.85;;
68866;SDS011;56451;44.804;20.476;2022-12-07T06:15:11;9.05;;;5.57;;
68866;SDS011;56451;44.804;20.476;2022-12-07T06:17:38;9.25;;;5.60;;
68866;SDS011;56451;44.804;20.476;2022-12-07T06:20:05;8.80;;;4.85;;
68866;SDS011;56451;44.804;20.476;2022-12-07T06:22:32;7.93;;;4.68;;
68866;SDS011;56451;44.804;20.476;2022-12-07T06:24:58;8.15;;;5.13;;
68866;SDS011;56451;44.804;20.476;2022-12-07T06:27:24;8.18;;;5.20;;
68866;SDS011;56451;44.804;20.476;2022-12-07T06:29:50;9.90;;;5.10;;
68866;SDS011;56451;44.804;20.476;2022-12-07T06:32:15;8.23;;;4.60;;
68866;SDS011;56451;44.804;20.476;2022-12-07T06:34:41;7.75;;;4.82;;
68866;SDS011;56451;44.804;20.476;2022-12-07T06:37:07;10.15;;;4.88;;
68866;SDS011;56451;44.804;20.476;2022-12-07T06:39:33;7.07;;;4.18;;
68866;SDS011;56451;44.804;20.476;2022-12-07T06:41:59;9.20;;;4.90;;
68866;SDS011;56451;44.804;20.476;2022-12-07T06:44:25;7.90;;;4.68;;
68866;SDS011;56451;44.804;20.476;2022-12-07T06:46:51;11.20;;;4.78;;
68866;SDS011;56451;44.804;20.476;2022-12-07T06:49:17;9.57;;;5.15;;
68866;SDS011;56451;44.804;20.476;2022-12-07T06:51:43;10.20;;;5.03;;
68866;SDS011;56451;44.804;20.476;2022-12-07T06:54:13;8.55;;;4.93;;
68866;SDS011;56451;44.804;20.476;2022-12-07T06:56:39;11.07;;;5.05;;
68866;SDS011;56451;44.804;20.476;2022-12-07T06:59:06;9.00;;;4.60;;
68866;SDS011;56451;44.804;20.476;2022-12-07T07:01:33;8.48;;;5.07;;
68866;SDS011;56451;44.804;20.476;2022-12-07T07:03:59;9.70;;;5.32;;
68866;SDS011;56451;44.804;20.476;2022-12-07T07:06:26;8.98;;;4.82;;
68866;SDS011;56451;44.804;20.476;2022-12-07T07:08:51;10.07;;;5.00;;
68866;SDS011;56451;44.804;20.476;2022-12-07T07:11:17;10.18;;;6.18;;
68866;SDS011;56451;44.804;20.476;2022-12-07T07:13:44;10.90;;;6.07;;
68866;SDS011;56451;44.804;20.476;2022-12-07T07:16:10;10.77;;;6.18;;
68866;SDS011;56451;44.804;20.476;2022-12-07T07:18:36;12.30;;;6.30;;
68866;SDS011;56451;44.804;20.476;2022-12-07T07:21:02;10.87;;;6.50;;
68866;SDS011;56451;44.804;20.476;2022-12-07T07:23:28;11.18;;;6.50;;
68866;SDS011;56451;44.804;20.476;2022-12-07T07:25:54;13.88;;;6.72;;
68866;SDS011;56451;44.804;20.476;2022-12-07T07:28:20;11.67;;;6.20;;
68866;SDS011;56451;44.804;20.476;2022-12-07T07:30:46;10.77;;;6.80;;
68866;SDS011;56451;44.804;20.476;2022-12-07T07:33:12;11.85;;;6.55;;
68866;SDS011;56451;44.804;20.476;2022-12-07T07:35:38;13.55;;;7.15;;
68866;SDS011;56451;44.804;20.476;2022-12-07T07:38:04;12.40;;;7.20;;
68866;SDS011;56451;44.804;20.476;2022-12-07T07:40:30;13.38;;;7.03;;
68866;SDS011;56451;44.804;20.476;2022-12-07T07:42:56;12.18;;;6.55;;
68866;SDS011;56451;44.804;20.476;2022-12-07T07:45:23;14.30;;;7.57;;
68866;SDS011;56451;44.804;20.476;2022-12-07T07:47:50;12.38;;;6.93;;
68866;SDS011;56451;44.804;20.476;2022-12-07T07:50:17;15.98;;;8.27;;
68866;SDS011;56451;44.804;20.476;2022-12-07T07:52:43;13.70;;;7.38;;
68866;SDS011;56451;44.804;20.476;2022-12-07T07:55:10;16.40;;;8.70;;
68866;SDS011;56451;44.804;20.476;2022-12-07T07:57:36;15.45;;;8.63;;
68866;SDS011;56451;44.804;20.476;2022-12-07T08:00:03;14.75;;;7.82;;
68866;SDS011;56451;44.804;20.476;2022-12-07T08:02:38;14.57;;;7.70;;
68866;SDS011;56451;44.804;20.476;2022-12-07T08:05:04;12.35;;;7.43;;
68866;SDS011;56451;44.804;20.476;2022-12-07T08:07:30;10.95;;;6.97;;
68866;SDS011;56451;44.804;20.476;2022-12-07T08:09:56;12.15;;;6.32;;
68866;SDS011;56451;44.804;20.476;2022-12-07T08:12:22;16.07;;;7.60;;
68866;SDS011;56451;44.804;20.476;2022-12-07T08:14:48;11.90;;;6.68;;
68866;SDS011;56451;44.804;20.476;2022-12-07T08:17:14;12.38;;;7.45;;
68866;SDS011;56451;44.804;20.476;2022-12-07T08:19:39;11.17;;;7.30;;
68866;SDS011;56451;44.804;20.476;2022-12-07T08:22:05;12.45;;;7.03;;
68866;SDS011;56451;44.804;20.476;2022-12-07T08:24:35;14.35;;;8.30;;
68866;SDS011;56451;44.804;20.476;2022-12-07T08:27:01;26.60;;;9.73;;
68866;SDS011;56451;44.804;20.476;2022-12-07T08:29:27;16.88;;;9.00;;
68866;SDS011;56451;44.804;20.476;2022-12-07T08:31:52;13.45;;;8.40;;
68866;SDS011;56451;44.804;20.476;2022-12-07T08:34:18;15.37;;;9.30;;
68866;SDS011;56451;44.804;20.476;2022-12-07T08:36:44;20.45;;;10.50;;
68866;SDS011;56451;44.804;20.476;2022-12-07T08:39:10;19.03;;;10.83;;
68866;SDS011;56451;44.804;20.476;2022-12-07T08:41:36;17.02;;;10.60;;
68866;SDS011;56451;44.804;20.476;2022-12-07T08:44:02;19.35;;;10.73;;
68866;SDS011;56451;44.804;20.476;2022-12-07T08:46:33;18.45;;;10.70;;
68866;SDS011;56451;44.804;20.476;2022-12-07T08:49:14;17.33;;;9.93;;
68866;SDS011;56451;44.804;20.476;2022-12-07T08:51:43;39.85;;;16.40;;
68866;SDS011;56451;44.804;20.476;2022-12-07T08:54:14;58.83;;;20.88;;
68866;SDS011;56451;44.804;20.476;2022-12-07T08:56:42;25.85;;;11.82;;
68866;SDS011;56451;44.804;20.476;2022-12-07T08:59:09;55.50;;;20.25;;
68866;SDS011;56451;44.804;20.476;2022-12-07T09:01:37;15.75;;;8.38;;
68866;SDS011;56451;44.804;20.476;2022-12-07T09:04:02;11.52;;;7.50;;
68866;SDS011;56451;44.804;20.476;2022-12-07T09:06:28;11.30;;;6.97;;
68866;SDS011;56451;44.804;20.476;2022-12-07T09:08:55;15.57;;;8.38;;
68866;SDS011;56451;44.804;20.476;2022-12-07T09:11:24;14.60;;;7.03;;
68866;SDS011;56451;44.804;20.476;2022-12-07T09:13:50;16.25;;;7.55;;
68866;SDS011;56451;44.804;20.476;2022-12-07T09:16:16;37.93;;;21.73;;
68866;SDS011;56451;44.804;20.476;2022-12-07T09:18:42;24.10;;;13.20;;
68866;SDS011;56451;44.804;20.476;2022-12-07T09:21:08;15.80;;;8.15;;
68866;SDS011;56451;44.804;20.476;2022-12-07T09:23:34;13.75;;;7.45;;
68866;SDS011;56451;44.804;20.476;2022-12-07T09:26:01;15.23;;;7.90;;
68866;SDS011;56451;44.804;20.476;2022-12-07T09:28:28;14.88;;;9.05;;
68866;SDS011;56451;44.804;20.476;2022-12-07T09:30:55;17.42;;;10.73;;
68866;SDS011;56451;44.804;20.476;2022-12-07T09:33:21;16.87;;;10.97;;
68866;SDS011;56451;44.804;20.476;2022-12-07T09:35:47;15.93;;;10.63;;
68866;SDS011;56451;44.804;20.476;2022-12-07T09:38:14;19.52;;;10.77;;
68866;SDS011;56451;44.804;20.476;2022-12-07T09:40:40;18.67;;;10.18;;
68866;SDS011;56451;44.804;20.476;2022-12-07T09:43:13;24.13;;;12.88;;
68866;SDS011;56451;44.804;20.476;2022-12-07T09:45:41;23.20;;;11.40;;
68866;SDS011;56451;44.804;20.476;2022-12-07T09:48:14;16.65;;;10.07;;
68866;SDS011;56451;44.804;20.476;2022-12-07T09:50:46;16.83;;;9.60;;
68866;SDS011;56451;44.804;20.476;2022-12-07T09:53:20;19.17;;;10.68;;
68866;SDS011;56451;44.804;20.476;2022-12-07T09:55:51;15.20;;;8.52;;
68866;SDS011;56451;44.804;20.476;2022-12-07T09:58:19;18.33;;;9.07;;
68866;SDS011;56451;44.804;20.476;2022-12-07T10:00:47;17.38;;;8.93;;
68866;SDS011;56451;44.804;20.476;2022-12-07T10:03:13;16.95;;;9.68;;
68866;SDS011;56451;44.804;20.476;2022-12-07T10:05:40;17.65;;;11.05;;
68866;SDS011;56451;44.804;20.476;2022-12-07T10:08:11;21.97;;;10.73;;
68866;SDS011;56451;44.804;20.476;2022-12-07T10:10:38;22.13;;;12.63;;
68866;SDS011;56451;44.804;20.476;2022-12-07T10:13:07;24.38;;;12.50;;
68866;SDS011;56451;44.804;20.476;2022-12-07T10:23:34;20.90;;;12.55;;
68866;SDS011;56451;44.804;20.476;2022-12-07T10:26:21;21.38;;;12.10;;
68866;SDS011;56451;44.804;20.476;2022-12-07T10:28:55;25.08;;;12.30;;
68866;SDS011;56451;44.804;20.476;2022-12-07T10:31:24;18.63;;;10.93;;
68866;SDS011;56451;44.804;20.476;2022-12-07T10:36:42;21.20;;;12.60;;
68866;SDS011;56451;44.804;20.476;2022-12-07T10:39:12;19.70;;;12.48;;
68866;SDS011;56451;44.804;20.476;2022-12-07T10:42:02;21.50;;;12.25;;
68866;SDS011;56451;44.804;20.476;2022-12-07T10:44:29;27.27;;;13.52;;
68866;SDS011;56451;44.804;20.476;2022-12-07T10:55:39;19.27;;;10.93;;
68866;SDS011;56451;44.804;20.476;2022-12-07T11:18:03;21.55;;;12.85;;
68866;SDS011;56451;44.804;20.476;2022-12-07T11:20:43;23.42;;;13.57;;
68866;SDS011;56451;44.804;20.476;2022-12-07T11:23:16;24.52;;;14.00;;
68866;SDS011;56451;44.804;20.476;2022-12-07T11:25:54;24.75;;;13.93;;
68866;SDS011;56451;44.804;20.476;2022-12-07T11:28:44;19.23;;;12.13;;
68866;SDS011;56451;44.804;20.476;2022-12-07T11:34:51;22.98;;;12.90;;
68866;SDS011;56451;44.804;20.476;2022-12-07T11:37:41;21.20;;;13.25;;
68866;SDS011;56451;44.804;20.476;2022-12-07T11:42:55;20.93;;;12.10;;
68866;SDS011;56451;44.804;20.476;2022-12-07T11:45:44;23.70;;;13.05;;
68866;SDS011;56451;44.804;20.476;2022-12-07T11:48:58;24.85;;;13.45;;
68866;SDS011;56451;44.804;20.476;2022-12-07T11:51:07;21.65;;;13.10;;
68866;SDS011;56451;44.804;20.476;2022-12-07T11:56:43;28.63;;;15.43;;
68866;SDS011;56451;44.804;20.476;2022-12-07T11:59:16;29.02;;;15.82;;
68866;SDS011;56451;44.804;20.476;2022-12-07T12:04:31;35.05;;;18.17;;
68866;SDS011;56451;44.804;20.476;2022-12-07T12:07:07;50.53;;;26.30;;
68866;SDS011;56451;44.804;20.476;2022-12-07T12:09:41;30.73;;;17.20;;
68866;SDS011;56451;44.804;20.476;2022-12-07T12:17:50;25.83;;;13.90;;
68866;SDS011;56451;44.804;20.476;2022-12-07T12:20:22;27.25;;;14.85;;
68866;SDS011;56451;44.804;20.476;2022-12-07T12:23:16;29.97;;;17.27;;
68866;SDS011;56451;44.804;20.476;2022-12-07T12:25:46;26.88;;;14.57;;
68866;SDS011;56451;44.804;20.476;2022-12-07T12:28:58;21.70;;;13.32;;
68866;SDS011;56451;44.804;20.476;2022-12-07T12:33:58;22.27;;;12.73;;
68866;SDS011;56451;44.804;20.476;2022-12-07T12:39:21;26.15;;;13.50;;
68866;SDS011;56451;44.804;20.476;2022-12-07T12:46:54;23.58;;;14.07;;
68866;SDS011;56451;44.804;20.476;2022-12-07T13:05:18;27.92;;;14.90;;
68866;SDS011;56451;44.804;20.476;2022-12-07T13:10:20;28.47;;;15.03;;
68866;SDS011;56451;44.804;20.476;2022-12-07T13:23:51;16.33;;;9.00;;
68866;SDS011;56451;44.804;20.476;2022-12-07T13:29:12;12.88;;;7.82;;
68866;SDS011;56451;44.804;20.476;2022-12-07T13:37:01;16.95;;;8.05;;
68866;SDS011;56451;44.804;20.476;2022-12-07T13:39:36;14.32;;;8.30;;
68866;SDS011;56451;44.804;20.476;2022-12-07T13:42:17;14.50;;;8.43;;
68866;SDS011;56451;44.804;20.476;2022-12-07T13:44:49;13.65;;;8.27;;
68866;SDS011;56451;44.804;20.476;2022-12-07T13:50:23;19.88;;;10.30;;
68866;SDS011;56451;44.804;20.476;2022-12-07T13:52:54;17.05;;;9.90;;
68866;SDS011;56451;44.804;20.476;2022-12-07T13:55:20;17.55;;;9.73;;
68866;SDS011;56451;44.804;20.476;2022-12-07T13:57:50;17.00;;;9.13;;
68866;SDS011;56451;44.804;20.476;2022-12-07T14:00:26;11.73;;;6.88;;
68866;SDS011;56451;44.804;20.476;2022-12-07T14:02:56;15.63;;;8.52;;
68866;SDS011;56451;44.804;20.476;2022-12-07T14:05:43;14.05;;;7.32;;
68866;SDS011;56451;44.804;20.476;2022-12-07T14:10:37;11.13;;;6.38;;
68866;SDS011;56451;44.804;20.476;2022-12-07T14:15:55;17.15;;;8.73;;
68866;SDS011;56451;44.804;20.476;2022-12-07T14:18:30;15.35;;;9.10;;
68866;SDS011;56451;44.804;20.476;2022-12-07T14:21:06;16.73;;;9.43;;
68866;SDS011;56451;44.804;20.476;2022-12-07T14:23:32;20.52;;;10.55;;
68866;SDS011;56451;44.804;20.476;2022-12-07T14:31:54;21.10;;;11.85;;
68866;SDS011;56451;44.804;20.476;2022-12-07T14:34:22;21.43;;;12.13;;
68866;SDS011;56451;44.804;20.476;2022-12-07T14:36:48;19.05;;;11.40;;
68866;SDS011;56451;44.804;20.476;2022-12-07T14:39:14;21.83;;;11.73;;
68866;SDS011;56451;44.804;20.476;2022-12-07T14:41:40;21.45;;;11.82;;
68866;SDS011;56451;44.804;20.476;2022-12-07T14:44:22;22.35;;;11.60;;
68866;SDS011;56451;44.804;20.476;2022-12-07T14:46:49;21.08;;;12.00;;
68866;SDS011;56451;44.804;20.476;2022-12-07T14:49:15;22.55;;;11.68;;
68866;SDS011;56451;44.804;20.476;2022-12-07T14:51:42;21.75;;;12.50;;
68866;SDS011;56451;44.804;20.476;2022-12-07T14:54:19;22.67;;;12.48;;
68866;SDS011;56451;44.804;20.476;2022-12-07T14:56:49;28.63;;;13.77;;
68866;SDS011;56451;44.804;20.476;2022-12-07T14:59:17;27.33;;;13.35;;
68866;SDS011;56451;44.804;20.476;2022-12-07T15:01:44;29.63;;;14.48;;
68866;SDS011;56451;44.804;20.476;2022-12-07T15:04:10;29.77;;;16.33;;
68866;SDS011;56451;44.804;20.476;2022-12-07T15:06:36;34.28;;;17.85;;
68866;SDS011;56451;44.804;20.476;2022-12-07T15:09:02;31.93;;;17.03;;
68866;SDS011;56451;44.804;20.476;2022-12-07T15:11:28;28.25;;;15.95;;
68866;SDS011;56451;44.804;20.476;2022-12-07T15:13:54;20.83;;;12.55;;
68866;SDS011;56451;44.804;20.476;2022-12-07T15:16:40;22.45;;;11.65;;
68866;SDS011;56451;44.804;20.476;2022-12-07T15:19:11;20.63;;;10.93;;
68866;SDS011;56451;44.804;20.476;2022-12-07T15:21:40;24.73;;;13.68;;
68866;SDS011;56451;44.804;20.476;2022-12-07T15:24:07;22.38;;;12.40;;
68866;SDS011;56451;44.804;20.476;2022-12-07T15:26:34;22.98;;;12.30;;
68866;SDS011;56451;44.804;20.476;2022-12-07T15:29:00;16.08;;;8.05;;
68866;SDS011;56451;44.804;20.476;2022-12-07T15:31:26;15.93;;;9.23;;
68866;SDS011;56451;44.804;20.476;2022-12-07T15:33:51;16.92;;;8.82;;
68866;SDS011;56451;44.804;20.476;2022-12-07T15:36:19;13.90;;;8.07;;
68866;SDS011;56451;44.804;20.476;2022-12-07T15:38:50;16.55;;;9.07;;
68866;SDS011;56451;44.804;20.476;2022-12-07T15:41:16;16.88;;;9.65;;
68866;SDS011;56451;44.804;20.476;2022-12-07T15:43:42;19.27;;;10.73;;
68866;SDS011;56451;44.804;20.476;2022-12-07T15:46:31;22.23;;;12.18;;
68866;SDS011;56451;44.804;20.476;2022-12-07T15:48:58;24.02;;;13.60;;
68866;SDS011;56451;44.804;20.476;2022-12-07T15:51:24;27.98;;;15.43;;
68866;SDS011;56451;44.804;20.476;2022-12-07T15:53:50;24.38;;;13.75;;
68866;SDS011;56451;44.804;20.476;2022-12-07T15:56:16;23.63;;;13.45;;
68866;SDS011;56451;44.804;20.476;2022-12-07T15:58:42;19.23;;;11.43;;
68866;SDS011;56451;44.804;20.476;2022-12-07T16:01:15;20.88;;;11.68;;
68866;SDS011;56451;44.804;20.476;2022-12-07T16:03:43;25.10;;;12.68;;
68866;SDS011;56451;44.804;20.476;2022-12-07T16:06:10;25.92;;;12.82;;
68866;SDS011;56451;44.804;20.476;2022-12-07T16:08:36;23.20;;;13.37;;
68866;SDS011;56451;44.804;20.476;2022-12-07T16:11:07;20.27;;;11.40;;
68866;SDS011;56451;44.804;20.476;2022-12-07T16:13:33;30.33;;;14.88;;
68866;SDS011;56451;44.804;20.476;2022-12-07T16:16:07;32.20;;;16.08;;
68866;SDS011;56451;44.804;20.476;2022-12-07T16:18:35;29.67;;;16.05;;
68866;SDS011;56451;44.804;20.476;2022-12-07T16:21:01;28.30;;;15.60;;
68866;SDS011;56451;44.804;20.476;2022-12-07T16:23:27;27.33;;;14.00;;
68866;SDS011;56451;44.804;20.476;2022-12-07T16:25:53;31.05;;;15.15;;
68866;SDS011;56451;44.804;20.476;2022-12-07T16:28:19;26.92;;;15.02;;
68866;SDS011;56451;44.804;20.476;2022-12-07T16:30:45;30.53;;;15.70;;
68866;SDS011;56451;44.804;20.476;2022-12-07T16:33:11;29.20;;;15.23;;
68866;SDS011;56451;44.804;20.476;2022-12-07T16:35:40;26.05;;;14.45;;
68866;SDS011;56451;44.804;20.476;2022-12-07T16:38:06;27.05;;;14.32;;
68866;SDS011;56451;44.804;20.476;2022-12-07T16:40:33;25.10;;;14.07;;
68866;SDS011;56451;44.804;20.476;2022-12-07T16:42:59;24.20;;;13.53;;
68866;SDS011;56451;44.804;20.476;2022-12-07T16:45:25;27.35;;;15.50;;
68866;SDS011;56451;44.804;20.476;2022-12-07T16:47:51;26.42;;;14.90;;
68866;SDS011;56451;44.804;20.476;2022-12-07T16:50:17;30.30;;;16.53;;
68866;SDS011;56451;44.804;20.476;2022-12-07T16:52:43;21.50;;;12.90;;
68866;SDS011;56451;44.804;20.476;2022-12-07T16:55:09;25.88;;;15.05;;
68866;SDS011;56451;44.804;20.476;2022-12-07T16:57:35;24.57;;;13.30;;